Latest Weather Observations for Luncheon Hill

IDT60801

Issued at 11:01 pm EST Saturday 18 April 2015 (issued every 30 minutes, with the page automatically refreshed every 10 minutes)

About weather observations | Map of weather stations | Latest weather observations for TAS | Other Formats
Station Details ID: 091259 Name: LUNCHEON HILL (FORESTRY) Lat: -41.15 Lon: 145.15 Height: 344.0 m
Data from the previous 72 hours. | See also: Recent months at Luncheon Hill
Date/Time
EST
Temp
°C
App
Temp
°C
Dew
Point
Rel
Hum
%
Delta-T
°C
Wind Press
QNH
hPa
Press
MSL
hPa
Rain
since 9 am
mm
Dir
 
Spd
km/h
Gust
km/h
Spd
kts
Gust
kts
18/11:00pm 5.8 1.6 5.7 99 0.0 SSW 17 20 9 11 - - 5.8
18/10:30pm 6.3 2.5 6.0 98 0.1 SW 15 20 8 11 - - 5.6
18/10:00pm 6.5 1.8 6.1 97 0.2 SW 20 39 11 21 - - 5.6
18/09:30pm 6.7 2.6 6.1 96 0.3 SW 17 26 9 14 - - 5.4
18/09:00pm 7.0 3.0 6.7 98 0.1 WSW 17 26 9 14 - - 5.4
18/08:30pm 7.0 2.5 6.9 99 0.0 SW 20 26 11 14 - - 5.4
18/08:00pm 7.2 2.9 6.9 98 0.1 WSW 19 33 10 18 - - 5.4
18/07:30pm 7.0 3.4 6.7 98 0.1 WSW 15 22 8 12 - - 5.2
18/07:00pm 7.3 2.9 7.2 99 0.0 W 20 43 11 23 - - 5.2
18/06:30pm 7.6 4.9 7.5 99 0.0 WSW 11 17 6 9 - - 4.8
18/06:00pm 7.6 4.6 7.5 99 0.0 WSW 13 22 7 12 - - 4.8
18/05:30pm 7.6 3.8 7.5 99 0.0 SSW 17 24 9 13 - - 4.8
18/05:00pm 7.6 3.4 7.5 99 0.0 SW 19 26 10 14 - - 4.8
18/04:30pm 8.0 3.7 7.9 99 0.0 SSW 20 30 11 16 - - 4.2
18/04:00pm 8.6 4.1 8.5 99 0.0 SW 22 35 12 19 - - 3.4
18/03:30pm 8.7 4.2 8.6 99 0.0 SW 22 32 12 17 - - 2.6
18/03:00pm 9.2 4.5 9.1 99 0.1 SW 24 39 13 21 - - 1.8
18/02:30pm 9.7 3.9 9.4 98 0.2 SSW 30 50 16 27 - - 1.6
18/02:14pm 11.7 6.1 11.5 99 0.1 NW 32 52 17 28 - - 1.6
18/02:00pm 11.8 5.7 11.6 99 0.1 NW 35 50 19 27 - - 0.8
18/01:50pm 11.9 6.7 11.7 99 0.1 NNW 30 52 16 28 - - 0.8
18/01:30pm 12.0 6.5 11.8 99 0.1 NW 32 41 17 22 - - 0.4
18/01:00pm 11.8 6.6 11.6 99 0.1 NW 30 46 16 25 - - 0.4
18/12:51pm 11.7 6.9 11.5 99 0.1 NW 28 46 15 25 - - 0.4
18/12:30pm 11.8 5.8 10.9 94 0.5 NW 33 46 18 25 - - 0.0
18/12:05pm 12.9 7.4 10.4 85 1.3 NW 30 48 16 26 - - 0.0
18/12:00pm 13.0 7.0 10.2 83 1.5 NW 32 48 17 26 - - 0.0
18/11:34am 13.3 7.8 10.5 83 1.5 NW 30 48 16 26 - - 0.0
18/11:30am 13.1 7.1 10.1 82 1.6 NNW 32 48 17 26 - - 0.0
18/11:16am 14.0 8.4 10.0 77 2.1 NW 30 52 16 28 - - 0.0
18/11:00am 13.6 7.7 10.6 82 1.6 NW 32 48 17 26 - - 0.0
18/10:30am 13.7 9.1 11.2 85 1.3 NW 26 39 14 21 - - 0.0
18/10:00am 12.4 8.4 10.3 87 1.1 NW 22 32 12 17 - - 0.0
18/09:30am 12.6 9.2 10.5 87 1.1 NNW 19 24 10 13 - - 0.0
18/09:00am 12.1 8.7 10.5 90 0.8 N 19 24 10 13 - - 0.2
18/08:30am 10.4 6.8 9.8 96 0.3 NNW 19 24 10 13 - - 0.2
18/08:00am 9.7 6.4 9.6 99 0.1 N 17 19 9 10 - - 0.2
18/07:30am 9.5 5.5 9.2 98 0.2 NW 20 28 11 15 - - 0.2
18/07:00am 9.1 5.3 9.0 99 0.0 NW 19 22 10 12 - - 0.2
18/06:30am 9.3 5.5 9.2 99 0.1 NW 19 24 10 13 - - 0.2
18/06:00am 9.5 6.2 9.4 99 0.1 NW 17 22 9 12 - - 0.2
18/05:30am 10.2 6.6 10.0 99 0.1 NW 19 28 10 15 - - 0.2
18/05:00am 10.0 6.4 9.9 99 0.1 N 19 20 10 11 - - 0.2
18/04:30am 9.9 6.3 9.8 99 0.1 N 19 20 10 11 - - 0.2
18/04:00am 9.7 5.8 9.6 99 0.1 N 20 24 11 13 - - 0.2
18/03:30am 9.4 5.5 9.3 99 0.1 N 20 24 11 13 - - 0.2
18/03:00am 9.5 6.1 9.2 98 0.2 N 17 20 9 11 - - 0.2
18/02:30am 9.5 5.7 9.2 98 0.2 N 19 22 10 12 - - 0.2
18/02:00am 9.4 5.4 9.1 98 0.2 NNE 20 24 11 13 - - 0.2
18/01:30am 9.6 6.2 9.0 96 0.3 NNE 17 20 9 11 - - 0.2
18/01:00am 9.7 5.3 8.9 95 0.4 NNE 22 28 12 15 - - 0.2
18/12:30am 9.8 6.0 8.9 94 0.5 NNE 19 20 10 11 - - 0.2
18/12:00am 9.8 6.0 8.9 94 0.5 NNE 19 20 10 11 - - 0.2
 
Date/Time
EST
Temp
°C
App
Temp
°C
Dew
Point
Rel
Hum
%
Delta-T
°C
Wind Press
QNH
hPa
Press
MSL
hPa
Rain
since 9 am
mm
Dir
 
Spd
km/h
Gust
km/h
Spd
kts
Gust
kts
17/11:30pm 9.8 5.9 8.7 93 0.5 NNE 19 20 10 11 - - 0.2
17/11:00pm 9.7 5.8 8.8 94 0.4 NNE 19 20 10 11 - - 0.2
17/10:30pm 9.7 6.2 8.6 93 0.5 NNE 17 20 9 11 - - 0.2
17/10:00pm 9.6 6.0 8.5 93 0.5 NNE 17 19 9 10 - - 0.2
17/09:30pm 9.7 6.2 8.6 93 0.5 N 17 20 9 11 - - 0.2
17/09:00pm 9.8 5.9 8.7 93 0.5 NNE 19 22 10 12 - - 0.2
17/08:30pm 9.8 6.3 8.7 93 0.5 NNE 17 20 9 11 - - 0.2
17/08:00pm 9.9 6.0 8.7 92 0.6 N 19 24 10 13 - - 0.2
17/07:30pm 10.3 6.5 8.9 91 0.7 N 19 22 10 12 - - 0.2
17/07:00pm 10.6 7.2 9.0 90 0.8 N 17 20 9 11 - - 0.2
17/06:30pm 10.8 7.0 9.2 90 0.8 N 19 24 10 13 - - 0.2
17/06:00pm 11.0 8.0 9.1 88 1.0 N 15 20 8 11 - - 0.2
17/05:30pm 11.4 8.7 9.1 86 1.2 N 13 17 7 9 - - 0.2
17/05:00pm 11.9 9.2 9.1 83 1.4 NNW 13 19 7 10 - - 0.2
17/04:30pm 12.2 9.1 8.7 79 1.8 NW 15 20 8 11 - - 0.2
17/04:00pm 13.5 10.6 9.6 77 2.0 NNW 15 20 8 11 - - 0.2
17/03:30pm 14.3 10.1 8.3 67 3.1 NNW 20 24 11 13 - - 0.2
17/03:00pm 15.2 12.0 10.0 71 2.8 NNW 17 20 9 11 - - 0.2
17/02:30pm 13.5 10.2 9.6 77 2.0 NNW 17 22 9 12 - - 0.2
17/02:00pm 13.3 10.6 10.3 82 1.6 WNW 15 20 8 11 - - 0.2
17/01:30pm 13.7 10.9 9.9 78 2.0 NW 15 20 8 11 - - 0.2
17/01:00pm 13.7 10.9 9.9 78 2.0 N 15 20 8 11 - - 0.2
17/12:30pm 14.5 10.9 9.9 74 2.4 NW 19 26 10 14 - - 0.2
17/12:00pm 12.9 8.9 9.2 78 1.9 NW 20 24 11 13 - - 0.2
17/11:30am 14.1 11.3 10.1 77 2.1 NNW 15 22 8 12 - - 0.2
17/11:00am 12.8 10.8 11.4 91 0.8 WNW 13 17 7 9 - - 0.2
17/10:30am 12.7 10.8 11.8 94 0.5 WNW 13 19 7 10 - - 0.2
17/10:00am 11.5 10.2 11.3 99 0.1 W 9 13 5 7 - - 0.2
17/09:30am 10.7 9.2 10.5 99 0.1 NW 9 17 5 9 - - 0.0
17/09:00am 10.6 9.1 10.4 99 0.1 WNW 9 17 5 9 - - 0.4
17/08:30am 10.2 8.9 10.0 99 0.1 W 7 9 4 5 - - 0.4
17/08:00am 9.7 7.9 9.6 99 0.1 SW 9 13 5 7 - - 0.4
17/07:30am 9.5 7.3 9.4 99 0.1 WSW 11 17 6 9 - - 0.4
17/07:00am 9.3 6.3 9.2 99 0.1 SW 15 20 8 11 - - 0.4
17/06:30am 9.4 7.2 9.3 99 0.1 SW 11 17 6 9 - - 0.4
17/06:00am 9.7 7.2 9.6 99 0.1 WSW 13 20 7 11 - - 0.4
17/05:30am 9.6 6.3 9.5 99 0.1 WNW 17 20 9 11 - - 0.2
17/05:00am 9.6 6.3 9.5 99 0.1 WNW 17 24 9 13 - - 0.2
17/04:30am 9.5 5.8 9.4 99 0.1 WNW 19 24 10 13 - - 0.2
17/04:00am 9.5 6.2 9.4 99 0.1 WNW 17 22 9 12 - - 0.2
17/03:30am 9.6 5.9 9.5 99 0.1 WNW 19 20 10 11 - - 0.0
17/03:00am 9.5 7.3 9.4 99 0.1 WNW 11 17 6 9 - - 0.0
17/02:30am 9.6 7.0 9.5 99 0.1 WSW 13 20 7 11 - - 0.0
17/02:00am 9.4 7.2 9.3 99 0.1 SW 11 17 6 9 - - 0.0
17/01:30am 9.7 7.0 9.1 96 0.3 W 13 20 7 11 - - 0.0
17/01:00am 9.9 7.2 9.1 95 0.4 W 13 20 7 11 - - 0.0
17/12:30am 9.4 6.3 8.8 96 0.3 W 15 19 8 10 - - 0.0
17/12:00am 9.7 6.6 8.9 95 0.4 WNW 15 22 8 12 - - 0.0
 
Date/Time
EST
Temp
°C
App
Temp
°C
Dew
Point
Rel
Hum
%
Delta-T
°C
Wind Press
QNH
hPa
Press
MSL
hPa
Rain
since 9 am
mm
Dir
 
Spd
km/h
Gust
km/h
Spd
kts
Gust
kts
16/11:30pm 9.7 5.6 8.8 94 0.4 WNW 20 26 11 14 - - 0.0
16/11:00pm 9.6 5.5 8.7 94 0.4 NW 20 26 11 14 - - 0.0
16/10:30pm 9.4 5.8 8.2 92 0.6 WNW 17 20 9 11 - - 0.0
16/10:00pm 9.7 6.1 8.3 91 0.7 WNW 17 24 9 13 - - 0.0
16/09:30pm 9.7 6.4 8.1 90 0.8 W 15 20 8 11 - - 0.0
16/09:00pm 9.8 6.9 8.2 90 0.8 WSW 13 19 7 10 - - 0.0
16/08:30pm 9.7 6.8 8.1 90 0.8 WSW 13 20 7 11 - - 0.0
16/08:00pm 9.7 6.8 8.1 90 0.8 WSW 13 19 7 10 - - 0.0
16/07:30pm 9.8 6.8 7.9 88 0.9 W 13 20 7 11 - - 0.0
16/07:00pm 10.0 7.0 7.8 86 1.1 WSW 13 19 7 10 - - 0.0
16/06:30pm 9.9 6.9 7.7 86 1.1 WSW 13 22 7 12 - - 0.0
16/06:00pm 9.9 6.9 7.5 85 1.2 SW 13 19 7 10 - - 0.0
16/05:30pm 10.0 6.5 7.4 84 1.3 SW 15 26 8 14 - - 0.0
16/05:00pm 10.2 6.6 6.9 80 1.6 SW 15 22 8 12 - - 0.0
16/04:30pm 10.4 6.4 6.7 78 1.8 SW 17 30 9 16 - - 0.0
16/04:00pm 10.7 7.5 7.0 78 1.8 SW 13 24 7 13 - - 0.0
16/03:30pm 10.9 6.6 6.8 76 2.0 SW 19 32 10 17 - - 0.0
16/03:00pm 10.9 7.0 7.0 77 1.9 SW 17 30 9 16 - - 0.0
16/02:30pm 10.9 6.4 6.8 76 2.0 SW 20 33 11 18 - - 0.0
16/02:00pm 11.2 6.6 6.3 72 2.3 SW 20 33 11 18 - - 0.0
16/01:30pm 11.5 6.1 6.4 71 2.5 SSW 24 43 13 23 - - 0.0
16/01:00pm 11.8 7.9 7.1 73 2.3 SW 17 30 9 16 - - 0.0
16/12:30pm 11.9 6.8 6.2 68 2.7 WSW 22 35 12 19 - - 0.0
16/12:00pm 11.5 6.2 7.0 74 2.2 SW 24 41 13 22 - - 0.0
16/11:30am 11.6 6.7 6.7 72 2.4 SW 22 37 12 20 - - 0.0
16/11:00am 10.9 5.7 7.2 78 1.8 SSW 24 41 13 22 - - 0.0
16/10:30am 10.4 6.1 7.1 80 1.6 SSW 19 28 10 15 - - 0.0
16/10:00am 10.1 5.8 7.9 86 1.1 SSW 20 32 11 17 - - 0.0
16/09:30am 9.1 3.1 7.2 88 0.9 SW 28 44 15 24 - - 0.0
16/09:05am 9.3 3.1 7.7 90 0.8 SSW 30 54 16 29 - - 0.0
16/09:00am 9.2 3.9 8.3 94 0.4 SSW 26 41 14 22 - - 2.4
16/08:30am 9.2 5.2 9.1 99 0.1 SW 20 32 11 17 - - 2.4
16/08:00am 8.9 4.5 8.8 99 0.0 SSW 22 32 12 17 - - 2.4
16/07:30am 8.7 3.4 8.6 99 0.0 SSW 26 37 14 20 - - 2.4
16/07:00am 8.8 4.0 8.7 99 0.0 SSW 24 37 13 20 - - 2.4
16/06:30am 8.9 4.8 8.8 99 0.0 SW 20 30 11 16 - - 2.2
16/06:00am 8.8 4.0 8.7 99 0.0 SSW 24 35 13 19 - - 2.2
16/05:30am 9.1 4.3 9.0 99 0.0 SW 24 35 13 19 - - 2.2
16/05:00am 9.4 4.3 9.3 99 0.1 SW 26 46 14 25 - - 2.2
16/04:30am 9.5 5.2 9.4 99 0.1 SSW 22 32 12 17 - - 2.0
16/04:00am 9.8 4.8 9.7 99 0.1 SSW 26 37 14 20 - - 2.0
16/03:30am 10.2 4.9 10.0 99 0.1 SSW 28 44 15 24 - - 2.0
16/03:00am 11.1 6.1 10.9 99 0.1 SW 28 46 15 25 - - 2.0
16/02:57am 11.3 7.1 11.1 99 0.1 SW 24 44 13 24 - - 2.0
16/02:30am 11.7 9.3 11.5 99 0.1 WSW 15 22 8 12 - - 2.0
16/02:00am 11.8 9.1 11.6 99 0.1 WSW 17 28 9 15 - - 1.8
16/01:30am 12.3 9.7 12.1 99 0.1 WSW 17 32 9 17 - - 1.8
16/01:00am 12.6 10.1 12.4 99 0.1 WSW 17 26 9 14 - - 1.6
16/12:30am 12.6 10.1 12.4 99 0.1 W 17 32 9 17 - - 1.4
16/12:00am 12.8 9.4 12.6 99 0.1 W 22 43 12 23 - - 1.4
 
Date/Time
EST
Temp
°C
App
Temp
°C
Dew
Point
Rel
Hum
%
Delta-T
°C
Wind Press
QNH
hPa
Press
MSL
hPa
Rain
since 9 am
mm
Dir
 
Spd
km/h
Gust
km/h
Spd
kts
Gust
kts
15/11:30pm 12.8 10.4 12.6 99 0.1 WSW 17 24 9 13 - - 1.2

Other Formats:

Comma delimited format used in spreadsheet applications
http://www.bom.gov.au/fwo/IDT60801/IDT60801.95956.axf

JavaScript Object Notation format (JSON) in row-major order
http://www.bom.gov.au/fwo/IDT60801/IDT60801.95956.json